Caposile

LIKI · 威尼托, 意大利

罗盘
风向 的 风向 030° Caposile 4/22
风: 12 kt, 4 beaufort

12 kt

3 kt
改变
0 ft 1.000 2.000 3.000 4.000 5.000
Cloud Cloud Cloud Cloud Cloud Cloud
BKN 5.000
METAR LIPZ 302250Z 03012KT 9999 -RA BKN050 17/16 Q1003 TEMPO 4000 TSRA

METAR Caposile - LIKI

Caposile是,意大利中的小机场。 该机场位于纬度45,56544和经度12,57677。 该机场有一条跑道: 4/22. 本场的ICAO机场代码为LIKI。 机场在Milano FIR中。

该航空气象观测是针对Venice Marco Polo Airport在2024年5月31日 00:50, 当地时间进行的。

机场观察

风向为030°,速度为12 kt。

可见度为10 km 或者更多。

有碎云在5.000 ft的高度。 破损或更高的上限为5.000 ft。

当前天气为光 雨。 温度和风寒是17 °C。 露点为16 °C,相对湿度为94%。 海平面上的气压为1003 hPa (QNH)。

发展趋势

  • 暂时的

    可变方向的风很小或没有。 可见性变为4 km。 重大天气:雷暴 雨。

白天

今天,太阳从05:24升起,在20:49降落。 这适用于Caposile,世界夏令时可能有所不同。 当地时间与世界标准时间之间的时差为+2 小时。 夏令时目前正在进行中。

公司介绍

我们没有关于这个机场的公司信息。

体会

到Vliegles.nl去找飞行课程,跳伞和其他飞行体验。 浏览页面,了解Caposile附近所有可用的活动。 你也可以使用搜索功能来寻找你所在地附近的特定飞行课程、跳伞或其他飞行体验。

跑道

Id 标题 侧风 逆风 侧风 %
4/22 044°-224° 3 kt 12 kt 24 %

逆风成分最大的方向会被突出显示,并用于横风计算。 这并不一定意味着这个方向在使用。

乌云

5.000 ft BKN 碎云

温度 & 天气

天气 光 雨
温度 17 °C
露点 16 °C
相对湿度 94%
Kp-index 3 (0-9)

白天

日出
05:26 (3:58)
中午
13:08
日落
20:50

小工具

你想在你的网站上有一个关于Caposile的当前航空天气(METAR)的小部件吗?

显示HTML代码
报告变更